Arcata Airport

Airport
ICAO code: 
KACV
Summary
ICAO Region: 
NAM
Territory: 
Location: 
Arcata, California, California
Serving: 
Humboldt County
Coordinates: 
Aerial View: 
40° 58' 15.218" N, 124° 6' 23.493" W
Airport WX: 
Fog
Metar
Observation
KACV 290714Z AUTO 03003KT 1 1/4SM BR OVC002 10/09 A3028 RMK AO2 T01000094
Station
Arcata / Eureka, Arcata Airport
Date/Time
2021-11-29 07:14:00
Wind direction
30°
Wind speed
03 kts
Lowest cloud amount
overcast
Temperature
10°C
Dew point
9.4°C
Humidity
96%
Weather condition
mist

Arcata Airport, also known as Arcata/Eureka Airport, is an airport located 24 km north of Eureka in the unincorporated town of McKinleyville, California. This regional airport serves Humboldt County, including the two primary regional cities that compose its name: Arcata and Eureka.

Climatology

Dry-summer subtropical ”Mediterranean" climate (Köppen climate classification Csb) - characterized by warm, dry summers and mild winters.

Runways

Designator Length Width Surface Rops
1/19 1371 46 ASP Yes/Yes
14/32 1829 46 ASP Yes/Yes
Airport map: 
Aerial View: 

SKYbrary Partners:

Safety knowledge contributed by: